Swag — VZN8760 — position and weather

sailwx.info

Track history (hours):
 
Tides and Currents Weather Stations Pressure Air Temp Water Temp Dewpoint Dewpoint Depression Visibility Wind Speed Wind Dir Waves Ship Positions

Swag

Last reported at 2018-Jul-10 01:11 UTC. Time now 2018-Jul-18 06:56 UTC.
Position S 27°28' E 153°25'.
Warning: this ship's position is 8 days out of date.

Length 13 m.

Type: Sailing vessel. MMSI: 503034620.

Date/timePositionNaut miles runAvg speedWind from/ knotsBaromVisibWave heightAir tempDewpointWater temp
2018-Jul-10 01:11S 27°28' E 153°25'2 2.0
2018-Jul-10 00:12S 27°30' E 153°24'0 0.0
2018-Jul-09 23:54S 27°30' E 153°24'0 0.0
2018-Jul-09 23:30S 27°30' E 153°24'3 6.0
2018-Jul-09 23:00S 27°33' E 153°24'4 7.8
2018-Jul-09 22:30S 27°37' E 153°24'3 5.0
2018-Jul-09 22:00S 27°40' E 153°24'3 5.4
2018-Jul-09 21:30S 27°42' E 153°24'0 0.0
2018-Jul-09 21:00S 27°42' E 153°24'0 0.0
2018-Jul-09 20:30S 27°42' E 153°24'0 0.0
2018-Jul-09 19:57S 27°42' E 153°24'0 0.1
2018-Jul-09 19:30S 27°42' E 153°24'0 0.0
2018-Jul-09 19:00S 27°42' E 153°24'0 0.0
2018-Jul-09 18:30S 27°42' E 153°24'0 0.0
2018-Jul-09 18:00S 27°42' E 153°24'0 0.0
2018-Jul-09 17:30S 27°42' E 153°24'0 0.0
2018-Jul-09 17:00S 27°42' E 153°24'0 0.0
2018-Jul-09 16:30S 27°42' E 153°24'0 0.0
2018-Jul-09 16:00S 27°42' E 153°24'0 0.0
2018-Jul-09 15:30S 27°42' E 153°24'0 0.0
2018-Jul-09 14:59S 27°42' E 153°24'0 0.0
2018-Jul-09 14:29S 27°42' E 153°24'0 0.1
2018-Jul-09 13:59S 27°42' E 153°24'0 0.0
2018-Jul-09 13:29S 27°42' E 153°24'0 0.0
2018-Jul-09 12:59S 27°42' E 153°24'0 0.0
2018-Jul-09 12:29S 27°42' E 153°24'0 0.0
2018-Jul-09 11:59S 27°42' E 153°24'0 0.0
2018-Jul-09 11:29S 27°42' E 153°24'0 0.0
2018-Jul-09 10:59S 27°42' E 153°24'0 0.0
2018-Jul-09 10:26S 27°42' E 153°24'0 0.0
2018-Jul-09 09:59S 27°42' E 153°24'0 0.0
2018-Jul-09 09:29S 27°42' E 153°24'0 0.0
2018-Jul-09 08:59S 27°42' E 153°24'0 0.0
2018-Jul-09 08:29S 27°42' E 153°24'0 0.0
2018-Jul-09 08:00S 27°42' E 153°24'0 0.0
2018-Jul-09 07:29S 27°42' E 153°24'0 0.1
2018-Jul-09 06:59S 27°42' E 153°24'0 0.1
2018-Jul-09 06:30S 27°42' E 153°24'3 5.7
2018-Jul-09 06:00S 27°45' E 153°24'2 3.5
2018-Jul-09 05:30S 27°47' E 153°25'2 4.4
2018-Jul-09 05:00S 27°47' E 153°23'0 0.8
2018-Jul-09 04:29S 27°47' E 153°22'0 0.1
2018-Jul-09 03:59S 27°47' E 153°22'0 0.0
2018-Jul-09 03:29S 27°47' E 153°22'0 0.0
2018-Jul-09 02:59S 27°47' E 153°22'0 0.0
2018-Jul-09 02:29S 27°47' E 153°22'0 0.0
2018-Jul-09 01:59S 27°47' E 153°22'0 0.0
2018-Jul-09 01:29S 27°47' E 153°22'0 0.0
2018-Jul-09 00:59S 27°47' E 153°22'0 0.0
2018-Jul-09 00:29S 27°47' E 153°22'0 0.0
2018-Jul-08 23:59S 27°47' E 153°22'0 0.0
2018-Jul-08 23:29S 27°47' E 153°22'0 0.0
2018-Jul-08 22:59S 27°47' E 153°22'0 0.0
2018-Jul-08 22:29S 27°47' E 153°22'0 0.0
2018-Jul-08 21:53S 27°47' E 153°22'0 0.0
2018-Jul-08 21:29S 27°47' E 153°22'0 0.0
2018-Jul-08 20:56S 27°47' E 153°22'0 0.0
2018-Jul-08 12:23S 27°47' E 153°22'0 0.0
2018-Jul-08 11:59S 27°47' E 153°22'0 0.0
2018-Jul-08 11:29S 27°47' E 153°22'0 0.0
2018-Jul-08 10:59S 27°47' E 153°22'0 0.0
2018-Jul-08 10:29S 27°47' E 153°22'0 0.0
2018-Jul-08 09:59S 27°47' E 153°22'0 0.0
2018-Jul-08 09:29S 27°47' E 153°22'0 0.0
2018-Jul-08 08:59S 27°47' E 153°22'0 0.0
2018-Jul-08 08:29S 27°47' E 153°22'0 0.0
2018-Jul-08 07:59S 27°47' E 153°22'0 0.0
2018-Jul-08 07:29S 27°47' E 153°22'0 0.0
2018-Jul-08 06:59S 27°47' E 153°22'0 0.0
2018-Jul-08 06:29S 27°47' E 153°22'0 0.0
2018-Jul-08 05:59S 27°47' E 153°22'0 0.0
2018-Jul-08 05:29S 27°47' E 153°22'0 0.0
2018-Jul-08 04:59S 27°47' E 153°22'0 0.0
2018-Jul-08 04:29S 27°47' E 153°22'0 0.0
2018-Jul-08 03:59S 27°47' E 153°22'0 0.0
2018-Jul-08 03:29S 27°47' E 153°22'0 0.0
2018-Jul-08 02:59S 27°47' E 153°22'0 0.0
2018-Jul-08 02:29S 27°47' E 153°22'0 0.0
2018-Jul-08 01:59S 27°47' E 153°22'0 0.0
2018-Jul-08 01:29S 27°47' E 153°22'0 0.0
2018-Jul-08 00:59S 27°47' E 153°22'2 3.1
2018-Jul-08 00:30S 27°45' E 153°21'2 4.7
2018-Jul-08 00:00S 27°43' E 153°21'2 4.5
2018-Jul-07 23:30S 27°41' E 153°22'2 4.6
2018-Jul-07 23:00S 27°39' E 153°21'2 4.2
2018-Jul-07 22:30S 27°37' E 153°19'2 3.9
2018-Jul-07 22:00S 27°35' E 153°20'2 3.5
2018-Jul-07 21:27S 27°35' E 153°22'0 1.0
2018-Jul-07 21:00S 27°36' E 153°22'0 0.0
2018-Jul-07 20:30S 27°36' E 153°22'0 0.0
2018-Jul-07 19:57S 27°36' E 153°22'0 0.0
2018-Jul-07 19:30S 27°36' E 153°22'0 0.0
2018-Jul-07 19:00S 27°36' E 153°22'0 0.0
2018-Jul-07 18:30S 27°36' E 153°22'0 0.0
2018-Jul-07 17:57S 27°36' E 153°22'0 0.0
2018-Jul-07 17:27S 27°36' E 153°22'0 0.0
2018-Jul-07 16:57S 27°36' E 153°22'0 0.0
2018-Jul-07 16:24S 27°36' E 153°22'0 0.0
2018-Jul-07 16:00S 27°36' E 153°22'0 0.0
2018-Jul-07 15:30S 27°36' E 153°22'0 0.0
2018-Jul-07 15:00S 27°36' E 153°22'0 0.0
2018-Jul-07 14:30S 27°36' E 153°22'0 0.0
2018-Jul-07 14:00S 27°36' E 153°22'0 0.0
2018-Jul-07 13:27S 27°36' E 153°22'0 0.0
2018-Jul-07 12:57S 27°36' E 153°22'0 0.0
2018-Jul-07 12:24S 27°36' E 153°22'0 0.0
2018-Jul-07 12:00S 27°36' E 153°22'0 0.0
2018-Jul-07 11:30S 27°36' E 153°22'0 0.0
2018-Jul-07 11:00S 27°36' E 153°22'0 0.0
2018-Jul-07 10:30S 27°36' E 153°22'0 0.0
2018-Jul-07 10:00S 27°36' E 153°22'0 0.0
2018-Jul-07 09:27S 27°36' E 153°22'0 0.0
2018-Jul-07 08:54S 27°36' E 153°22'0 0.0
2018-Jul-07 08:30S 27°36' E 153°22'0 0.0
2018-Jul-07 08:00S 27°36' E 153°22'0 0.0
2018-Jul-07 07:18S 27°36' E 153°22'0 0.0
2018-Jul-07 07:00S 27°36' E 153°22'0 0.0
2018-Jul-07 06:30S 27°36' E 153°22'0 0.0
2018-Jul-07 05:54S 27°36' E 153°22'0 0.0
2018-Jul-07 05:18S 27°36' E 153°22'0 0.0
2018-Jul-07 05:00S 27°36' E 153°22'0 0.0
2018-Jul-07 04:30S 27°36' E 153°22'0 0.0
2018-Jul-07 04:00S 27°36' E 153°22'1 2.3
2018-Jul-07 03:29S 27°35' E 153°21'1 1.8
2018-Jul-07 02:58S 27°34' E 153°21'16 6.0
2018-Jul-07 00:22S 27°20' E 153°13'2 5.6
2018-Jul-06 23:59S 27°18' E 153°12'3 5.7
2018-Jul-06 23:30S 27°15' E 153°12'3 5.7
2018-Jul-06 23:00S 27°13' E 153°10'3 5.7
2018-Jul-06 22:30S 27°10' E 153°09'3 5.2
2018-Jul-06 22:00S 27°08' E 153°08'2 4.2
2018-Jul-06 21:30S 27°06' E 153°10'2 3.7
2018-Jul-06 20:59S 27°04' E 153°09'0 0.0
2018-Jul-06 20:29S 27°04' E 153°09'0 0.0
2018-Jul-06 19:59S 27°04' E 153°09'0 0.0
2018-Jul-06 19:29S 27°04' E 153°09'0 0.0
2018-Jul-06 18:59S 27°04' E 153°09'0 0.0
2018-Jul-06 18:29S 27°04' E 153°09'0 0.0
2018-Jul-06 17:59S 27°04' E 153°09'0 0.0
2018-Jul-06 17:29S 27°04' E 153°09'0 0.1
2018-Jul-06 16:59S 27°04' E 153°09'0 0.0
2018-Jul-06 16:29S 27°04' E 153°09'0 0.0
2018-Jul-06 15:59S 27°04' E 153°09'0 0.0
2018-Jul-06 15:29S 27°04' E 153°09'0 0.0
2018-Jul-06 14:59S 27°04' E 153°09'0 0.0
2018-Jul-06 14:29S 27°04' E 153°09'0 0.0
2018-Jul-06 13:59S 27°04' E 153°09'0 0.0
2018-Jul-06 13:29S 27°04' E 153°09'0 0.0
2018-Jul-06 12:59S 27°04' E 153°09'0 0.0
2018-Jul-06 12:29S 27°04' E 153°09'0 0.0
2018-Jul-06 11:59S 27°04' E 153°09'0 0.0
2018-Jul-06 11:29S 27°04' E 153°09'0 0.0
2018-Jul-06 10:59S 27°04' E 153°09'0 0.0
2018-Jul-06 10:29S 27°04' E 153°09'0 0.0
2018-Jul-06 09:59S 27°04' E 153°09'0 0.0
2018-Jul-06 09:29S 27°04' E 153°09'0 0.0
2018-Jul-06 08:59S 27°04' E 153°09'0 0.0
2018-Jul-06 08:29S 27°04' E 153°09'0 0.0
2018-Jul-06 07:59S 27°04' E 153°09'0 0.0
2018-Jul-06 07:29S 27°04' E 153°09'0 0.0
2018-Jul-06 06:56S 27°04' E 153°09'0 0.0
2018-Jul-06 06:29S 27°04' E 153°09'0 0.0
2018-Jul-06 05:59S 27°04' E 153°09'0 0.0
2018-Jul-06 05:29S 27°04' E 153°09'0 0.0
2018-Jul-06 04:56S 27°04' E 153°09'0 0.0
2018-Jul-06 04:26S 27°04' E 153°09'0 0.0
2018-Jul-06 03:59S 27°04' E 153°09'0 0.0
2018-Jul-06 03:26S 27°04' E 153°09'0 0.0
2018-Jul-06 02:56S 27°04' E 153°09'0 0.0
2018-Jul-06 02:29S 27°04' E 153°09'0 0.0
2018-Jul-06 01:59S 27°04' E 153°09'0 0.0
2018-Jul-06 01:29S 27°04' E 153°09'0 0.0
2018-Jul-06 00:59S 27°04' E 153°09'0 0.0
2018-Jul-06 00:29S 27°04' E 153°09'0 0.0
2018-Jul-05 23:56S 27°04' E 153°09'0 0.1
2018-Jul-05 23:26S 27°04' E 153°09'0 0.1
2018-Jul-05 22:50S 27°04' E 153°09'0 0.0
2018-Jul-05 22:29S 27°04' E 153°09'0 0.0
2018-Jul-05 21:59S 27°04' E 153°09'0 0.0
2018-Jul-05 21:29S 27°04' E 153°09'0 0.0
2018-Jul-05 20:56S 27°04' E 153°09'0 0.0
2018-Jul-05 20:29S 27°04' E 153°09'0 0.0
2018-Jul-05 19:59S 27°04' E 153°09'0 0.1
2018-Jul-05 19:29S 27°04' E 153°09'0 0.1
2018-Jul-05 18:59S 27°04' E 153°09'0 0.0
2018-Jul-05 18:29S 27°04' E 153°09'0 0.0
2018-Jul-05 17:59S 27°04' E 153°09'0 0.0
2018-Jul-05 17:29S 27°04' E 153°09'0 0.0
2018-Jul-05 16:59S 27°04' E 153°09'0 0.0
2018-Jul-05 16:29S 27°04' E 153°09'0 0.0
2018-Jul-05 15:59S 27°04' E 153°09'0 0.0
2018-Jul-05 15:29S 27°04' E 153°09'0 0.0
2018-Jul-05 14:59S 27°04' E 153°09'0 0.0
2018-Jul-05 13:59S 27°04' E 153°09'0 0.0
2018-Jul-05 13:29S 27°04' E 153°09'0 0.0
2018-Jul-05 12:59S 27°04' E 153°09'0 0.0
2018-Jul-05 12:29S 27°04' E 153°09'0 0.0
2018-Jul-05 11:59S 27°04' E 153°09'0 0.0
2018-Jul-05 11:29S 27°04' E 153°09'0 0.0
2018-Jul-05 10:59S 27°04' E 153°09'0 0.0
2018-Jul-05 10:26S 27°04' E 153°09'0 0.1
2018-Jul-05 09:59S 27°04' E 153°09'0 0.0
2018-Jul-05 09:29S 27°04' E 153°09'0 0.0
2018-Jul-05 08:59S 27°04' E 153°09'0 0.0
2018-Jul-05 08:29S 27°04' E 153°09'0 0.0
2018-Jul-05 07:59S 27°04' E 153°09'0 0.0
2018-Jul-05 07:26S 27°04' E 153°09'0 0.0
2018-Jul-05 06:56S 27°04' E 153°09'0 0.0
2018-Jul-05 06:29S 27°04' E 153°09'0 0.0
2018-Jul-05 05:59S 27°04' E 153°09'0 0.0
2018-Jul-05 05:26S 27°04' E 153°09'0 0.0
2018-Jul-05 04:56S 27°04' E 153°09'0 0.0
2018-Jul-05 04:29S 27°04' E 153°09'0 0.0
2018-Jul-05 03:59S 27°04' E 153°09'0 0.0
2018-Jul-05 03:29S 27°04' E 153°09'0 0.0
2018-Jul-05 02:59S 27°04' E 153°09'0 0.0
2018-Jul-05 02:29S 27°04' E 153°09'0 0.0
2018-Jul-05 01:59S 27°04' E 153°09'0 0.0
2018-Jul-05 01:29S 27°04' E 153°09'0 0.0
2018-Jul-05 00:59S 27°04' E 153°09'0 0.0
2018-Jul-05 00:29S 27°04' E 153°09'0 0.0
2018-Jul-04 23:56S 27°04' E 153°09'0 0.0
2018-Jul-04 23:29S 27°04' E 153°09'0 0.0
2018-Jul-04 22:59S 27°04' E 153°09'0 0.1
2018-Jul-04 22:26S 27°04' E 153°09'0 0.0
2018-Jul-04 21:59S 27°04' E 153°09'0 0.1
2018-Jul-04 21:29S 27°04' E 153°09'0 0.0
2018-Jul-04 20:59S 27°04' E 153°09'0 0.1
2018-Jul-04 20:29S 27°04' E 153°09'0 0.0
2018-Jul-04 19:59S 27°04' E 153°09'0 0.0
2018-Jul-04 19:29S 27°04' E 153°09'0 0.0
2018-Jul-04 18:59S 27°04' E 153°09'0 0.0
2018-Jul-04 18:29S 27°04' E 153°09'0 0.1
2018-Jul-04 17:59S 27°04' E 153°09'0 0.0
2018-Jul-04 17:29S 27°04' E 153°09'0 0.0
2018-Jul-04 16:59S 27°04' E 153°09'0 0.0
2018-Jul-04 16:29S 27°04' E 153°09'0 0.0
2018-Jul-04 15:59S 27°04' E 153°09'0 0.0
2018-Jul-04 15:29S 27°04' E 153°09'0 0.0
2018-Jul-04 14:56S 27°04' E 153°09'0 0.0
2018-Jul-04 14:29S 27°04' E 153°09'0 0.0
2018-Jul-04 13:59S 27°04' E 153°09'0 0.0
2018-Jul-04 13:29S 27°04' E 153°09'0 0.0
2018-Jul-04 12:59S 27°04' E 153°09'0 0.0
2018-Jul-04 12:29S 27°04' E 153°09'0 0.0
2018-Jul-04 11:59S 27°04' E 153°09'0 0.0
2018-Jul-04 11:29S 27°04' E 153°09'0 0.0
2018-Jul-04 10:59S 27°04' E 153°09'0 0.0
2018-Jul-04 10:29S 27°04' E 153°09'0 0.0
2018-Jul-04 09:59S 27°04' E 153°09'0 0.0
2018-Jul-04 09:29S 27°04' E 153°09'0 0.0
2018-Jul-04 08:59S 27°04' E 153°09'0 0.0
2018-Jul-04 08:29S 27°04' E 153°09'0 0.0
2018-Jul-04 07:59S 27°04' E 153°09'0 0.0
2018-Jul-04 07:29S 27°04' E 153°09'0 0.0
2018-Jul-04 06:59S 27°04' E 153°09'0 0.0
2018-Jul-04 06:29S 27°04' E 153°09'0 0.0
2018-Jul-04 05:59S 27°04' E 153°09'0 0.0
2018-Jul-04 05:23S 27°04' E 153°09'0 0.1
2018-Jul-04 04:59S 27°04' E 153°09'0 0.0
2018-Jul-04 04:29S 27°04' E 153°09'0 0.0
2018-Jul-04 03:59S 27°04' E 153°09'0 0.0
2018-Jul-04 03:29S 27°04' E 153°09'0 0.0
2018-Jul-04 02:59S 27°04' E 153°09'0 0.0
2018-Jul-04 02:29S 27°04' E 153°09'0 0.0
2018-Jul-04 01:59S 27°04' E 153°09'0 0.0
2018-Jul-04 01:29S 27°04' E 153°09'0 0.0
2018-Jul-04 00:59S 27°04' E 153°09'0 0.0
2018-Jul-04 00:29S 27°04' E 153°09'0 0.0
2018-Jul-03 23:59S 27°04' E 153°09'0 0.0
2018-Jul-03 23:26S 27°04' E 153°09'0 0.0
2018-Jul-03 22:59S 27°04' E 153°09'0 0.0
2018-Jul-03 22:26S 27°04' E 153°09'0 0.0
2018-Jul-03 21:59S 27°04' E 153°09'0 0.1
2018-Jul-03 21:29S 27°04' E 153°09'0 0.0
2018-Jul-03 20:59S 27°04' E 153°09'0 0.0
2018-Jul-03 20:29S 27°04' E 153°09'0 0.0
2018-Jul-03 19:59S 27°04' E 153°09'0 0.0
2018-Jul-03 19:29S 27°04' E 153°09'0 0.0
2018-Jul-03 18:59S 27°04' E 153°09'0 0.0
2018-Jul-03 18:29S 27°04' E 153°09'0 0.0
2018-Jul-03 17:56S 27°04' E 153°09'0 0.0
2018-Jul-03 17:29S 27°04' E 153°09'0 0.0
2018-Jul-03 16:59S 27°04' E 153°09'0 0.0
2018-Jul-03 16:26S 27°04' E 153°09'0 0.1
2018-Jul-03 15:56S 27°04' E 153°09'0 0.0
2018-Jul-03 15:29S 27°04' E 153°09'0 0.0
2018-Jul-03 14:59S 27°04' E 153°09'0 0.0
2018-Jul-03 14:29S 27°04' E 153°09'0 0.0
2018-Jul-03 13:59S 27°04' E 153°09'0 0.0
2018-Jul-03 13:29S 27°04' E 153°09'0 0.0
2018-Jul-03 12:59S 27°04' E 153°09'0 0.0
2018-Jul-03 12:29S 27°04' E 153°09'0 0.0
2018-Jul-03 11:59S 27°04' E 153°09'0 0.0
2018-Jul-03 11:29S 27°04' E 153°09'0 0.0
2018-Jul-03 10:59S 27°04' E 153°09'0 0.0
2018-Jul-03 10:29S 27°04' E 153°09'0 0.0
2018-Jul-03 09:59S 27°04' E 153°09'0 0.0
2018-Jul-03 09:29S 27°04' E 153°09'0 0.0
2018-Jul-03 08:59S 27°04' E 153°09'0 0.0
2018-Jul-03 08:29S 27°04' E 153°09'0 0.0
2018-Jul-03 07:59S 27°04' E 153°09'0 0.0
2018-Jul-03 07:29S 27°04' E 153°09'0 0.0
2018-Jul-03 06:59S 27°04' E 153°09'0 0.0
2018-Jul-03 06:29S 27°04' E 153°09'0 0.0
2018-Jul-03 05:59S 27°04' E 153°09'0 0.0
2018-Jul-03 05:26S 27°04' E 153°09'0 0.0
2018-Jul-03 04:59S 27°04' E 153°09'0 0.0
2018-Jul-03 04:29S 27°04' E 153°09'0 0.0
2018-Jul-03 03:59S 27°04' E 153°09'0 0.0
2018-Jul-03 03:29S 27°04' E 153°09'0 0.0
2018-Jul-03 02:59S 27°04' E 153°09'0 0.0
2018-Jul-03 02:29S 27°04' E 153°09'0 0.0
2018-Jul-03 01:59S 27°04' E 153°09'0 0.0
2018-Jul-03 01:29S 27°04' E 153°09'0 0.0
2018-Jul-03 00:59S 27°04' E 153°09'0 0.0
2018-Jul-03 00:29S 27°04' E 153°09'0 0.0
2018-Jul-02 23:59S 27°04' E 153°09'0 0.0
2018-Jul-02 23:29S 27°04' E 153°09'0 0.0
2018-Jul-02 22:59S 27°04' E 153°09'0 0.0
2018-Jul-02 22:29S 27°04' E 153°09'0 0.0
2018-Jul-02 21:59S 27°04' E 153°09'0 0.0
2018-Jul-02 21:29S 27°04' E 153°09'0 0.0
2018-Jul-02 20:59S 27°04' E 153°09'0 0.1
2018-Jul-02 20:29S 27°04' E 153°09'0 0.0
2018-Jul-02 19:59S 27°04' E 153°09'0 0.0
2018-Jul-02 19:29S 27°04' E 153°09'0 0.0
2018-Jul-02 18:59S 27°04' E 153°09'0 0.0
2018-Jul-02 18:29S 27°04' E 153°09'0 0.0
2018-Jul-02 17:59S 27°04' E 153°09'0 0.0
2018-Jul-02 17:29S 27°04' E 153°09'0 0.0
2018-Jul-02 16:59S 27°04' E 153°09'0 0.0
2018-Jul-02 16:29S 27°04' E 153°09'0 0.0
2018-Jul-02 15:59S 27°04' E 153°09'0 0.0
2018-Jul-02 15:29S 27°04' E 153°09'0 0.1
2018-Jul-02 14:59S 27°04' E 153°09'0 0.0
2018-Jul-02 14:29S 27°04' E 153°09'0 0.0
2018-Jul-02 13:59S 27°04' E 153°09'0 0.1
2018-Jul-02 13:29S 27°04' E 153°09'0 0.1
2018-Jul-02 12:56S 27°04' E 153°09'0 0.0
2018-Jul-02 12:29S 27°04' E 153°09'0 0.0
2018-Jul-02 11:59S 27°04' E 153°09'0 0.0
2018-Jul-02 11:29S 27°04' E 153°09'0 0.0
2018-Jul-02 10:59S 27°04' E 153°09'0 0.0
2018-Jul-02 10:26S 27°04' E 153°09'0 0.0
2018-Jul-02 09:59S 27°04' E 153°09'0 0.0
2018-Jul-02 09:29S 27°04' E 153°09'0 0.0
2018-Jul-02 08:59S 27°04' E 153°09'0 0.0
2018-Jul-02 08:29S 27°04' E 153°09'0 0.1
2018-Jul-02 07:59S 27°04' E 153°09'0 0.0
2018-Jul-02 07:29S 27°04' E 153°09'0 0.0
2018-Jul-02 06:59S 27°04' E 153°09'0 0.0
2018-Jul-02 06:29S 27°04' E 153°09'0 0.0
2018-Jul-02 05:59S 27°04' E 153°09'0 0.1
2018-Jul-02 05:29S 27°04' E 153°09'0 0.1
2018-Jul-02 04:59S 27°04' E 153°09'0 0.0
2018-Jul-02 04:29S 27°04' E 153°09'0 0.1
2018-Jul-02 03:44S 27°04' E 153°09'0 0.0
2018-Jul-02 03:20S 27°04' E 153°09'0 0.0
2018-Jul-02 02:50S 27°04' E 153°09'0 0.0
2018-Jul-02 02:29S 27°04' E 153°09'0 0.0
2018-Jul-02 01:59S 27°04' E 153°09'0 0.0
2018-Jul-02 01:29S 27°04' E 153°09'0 0.0
2018-Jul-02 00:59S 27°04' E 153°09'0 0.0
2018-Jul-02 00:29S 27°04' E 153°09'0 0.0
2018-Jul-01 23:59S 27°04' E 153°09'0 0.0
2018-Jul-01 23:29S 27°04' E 153°09'0 0.0
2018-Jul-01 22:59S 27°04' E 153°09'0 0.0
2018-Jul-01 22:29S 27°04' E 153°09'0 0.0
2018-Jul-01 21:53S 27°04' E 153°09'0 0.0
2018-Jul-01 19:32S 27°04' E 153°09'0 0.0
2018-Jul-01 19:29S 27°04' E 153°09'0 0.0
2018-Jul-01 18:08S 27°04' E 153°09'0 0.0
2018-Jul-01 17:59S 27°04' E 153°09'0 0.0
2018-Jun-30 21:59S 27°04' E 153°09'0 0.0
2018-Jun-30 18:55S 27°04' E 153°09'0 0.0
2018-Jun-30 17:16S 27°04' E 153°09'0 0.0
2018-Jun-30 16:58S 27°04' E 153°09'0 0.0
2018-Jun-30 16:28S 27°04' E 153°09'0 0.0
2018-Jun-30 14:58S 27°04' E 153°09'0 0.0
2018-Jun-30 14:28S 27°04' E 153°09'0 0.0
2018-Jun-30 13:58S 27°04' E 153°09'0 0.1
2018-Jun-30 13:27S 27°04' E 153°09'0 0.0
2018-Jun-30 13:00S 27°04' E 153°09'0 0.0
2018-Jun-30 12:30S 27°04' E 153°09'0 0.0
2018-Jun-30 12:00S 27°04' E 153°09'0 0.0
2018-Jun-30 11:30S 27°04' E 153°09'0 0.0
2018-Jun-30 11:00S 27°04' E 153°09'0 0.0
2018-Jun-30 10:30S 27°04' E 153°09'0 0.0
2018-Jun-30 10:00S 27°04' E 153°09'0 0.0
2018-Jun-30 09:30S 27°04' E 153°09'0 0.0
2018-Jun-30 09:00S 27°04' E 153°09'0 0.0
2018-Jun-30 08:27S 27°04' E 153°09'0 0.0
2018-Jun-30 08:00S 27°04' E 153°09'0 0.0
2018-Jun-30 07:30S 27°04' E 153°09'0 0.0
2018-Jun-30 07:00S 27°04' E 153°09'0 0.1
2018-Jun-30 06:30S 27°04' E 153°09'0 0.0
2018-Jun-30 06:00S 27°04' E 153°09'0 0.0
2018-Jun-30 05:27S 27°04' E 153°09'0 0.0
2018-Jun-30 04:51S 27°04' E 153°09'0 0.0
2018-Jun-30 04:27S 27°04' E 153°09'0 0.0
2018-Jun-30 04:00S 27°04' E 153°09'0 0.0
2018-Jun-30 03:30S 27°04' E 153°09'0 0.0
2018-Jun-30 03:00S 27°04' E 153°09'0 0.0
2018-Jun-30 02:30S 27°04' E 153°09'0 0.1
2018-Jun-30 01:57S 27°04' E 153°09'0 0.1
2018-Jun-30 01:27S 27°04' E 153°09'  
Track history (hours):
 
Tides and Currents Weather Stations Pressure Air Temp Water Temp Dewpoint Dewpoint Depression Visibility Wind Speed Wind Dir Waves Ship Positions

Swag

Last reported at 2018-Jul-10 01:11 UTC. Time now 2018-Jul-18 06:56 UTC.
Position S 27°28' E 153°25'.
Warning: this ship's position is 8 days out of date.

Length 13 m.

Type: Sailing vessel. MMSI: 503034620.

Date/timePositionNaut miles runAvg speedWind from/ knotsBaromVisibWave heightAir tempDewpointWater temp
2018-Jul-10 01:11S 27°28' E 153°25'2 2.0
2018-Jul-10 00:12S 27°30' E 153°24'0 0.0
2018-Jul-09 23:54S 27°30' E 153°24'0 0.0
2018-Jul-09 23:30S 27°30' E 153°24'3 6.0
2018-Jul-09 23:00S 27°33' E 153°24'4 7.8
2018-Jul-09 22:30S 27°37' E 153°24'3 5.0
2018-Jul-09 22:00S 27°40' E 153°24'3 5.4
2018-Jul-09 21:30S 27°42' E 153°24'0 0.0
2018-Jul-09 21:00S 27°42' E 153°24'0 0.0
2018-Jul-09 20:30S 27°42' E 153°24'0 0.0
2018-Jul-09 19:57S 27°42' E 153°24'0 0.1
2018-Jul-09 19:30S 27°42' E 153°24'0 0.0
2018-Jul-09 19:00S 27°42' E 153°24'0 0.0
2018-Jul-09 18:30S 27°42' E 153°24'0 0.0
2018-Jul-09 18:00S 27°42' E 153°24'0 0.0
2018-Jul-09 17:30S 27°42' E 153°24'0 0.0
2018-Jul-09 17:00S 27°42' E 153°24'0 0.0
2018-Jul-09 16:30S 27°42' E 153°24'0 0.0
2018-Jul-09 16:00S 27°42' E 153°24'0 0.0
2018-Jul-09 15:30S 27°42' E 153°24'0 0.0
2018-Jul-09 14:59S 27°42' E 153°24'0 0.0
2018-Jul-09 14:29S 27°42' E 153°24'0 0.1
2018-Jul-09 13:59S 27°42' E 153°24'0 0.0
2018-Jul-09 13:29S 27°42' E 153°24'0 0.0
2018-Jul-09 12:59S 27°42' E 153°24'0 0.0
2018-Jul-09 12:29S 27°42' E 153°24'0 0.0
2018-Jul-09 11:59S 27°42' E 153°24'0 0.0
2018-Jul-09 11:29S 27°42' E 153°24'0 0.0
2018-Jul-09 10:59S 27°42' E 153°24'0 0.0
2018-Jul-09 10:26S 27°42' E 153°24'0 0.0
2018-Jul-09 09:59S 27°42' E 153°24'0 0.0
2018-Jul-09 09:29S 27°42' E 153°24'0 0.0
2018-Jul-09 08:59S 27°42' E 153°24'0 0.0
2018-Jul-09 08:29S 27°42' E 153°24'0 0.0
2018-Jul-09 08:00S 27°42' E 153°24'0 0.0
2018-Jul-09 07:29S 27°42' E 153°24'0 0.1
2018-Jul-09 06:59S 27°42' E 153°24'0 0.1
2018-Jul-09 06:30S 27°42' E 153°24'3 5.7
2018-Jul-09 06:00S 27°45' E 153°24'2 3.5
2018-Jul-09 05:30S 27°47' E 153°25'2 4.4
2018-Jul-09 05:00S 27°47' E 153°23'0 0.8
2018-Jul-09 04:29S 27°47' E 153°22'0 0.1
2018-Jul-09 03:59S 27°47' E 153°22'0 0.0
2018-Jul-09 03:29S 27°47' E 153°22'0 0.0
2018-Jul-09 02:59S 27°47' E 153°22'0 0.0
2018-Jul-09 02:29S 27°47' E 153°22'0 0.0
2018-Jul-09 01:59S 27°47' E 153°22'0 0.0
2018-Jul-09 01:29S 27°47' E 153°22'0 0.0
2018-Jul-09 00:59S 27°47' E 153°22'0 0.0
2018-Jul-09 00:29S 27°47' E 153°22'0 0.0
2018-Jul-08 23:59S 27°47' E 153°22'0 0.0
2018-Jul-08 23:29S 27°47' E 153°22'0 0.0
2018-Jul-08 22:59S 27°47' E 153°22'0 0.0
2018-Jul-08 22:29S 27°47' E 153°22'0 0.0
2018-Jul-08 21:53S 27°47' E 153°22'0 0.0
2018-Jul-08 21:29S 27°47' E 153°22'0 0.0
2018-Jul-08 20:56S 27°47' E 153°22'0 0.0
2018-Jul-08 12:23S 27°47' E 153°22'0 0.0
2018-Jul-08 11:59S 27°47' E 153°22'0 0.0
2018-Jul-08 11:29S 27°47' E 153°22'0 0.0
2018-Jul-08 10:59S 27°47' E 153°22'0 0.0
2018-Jul-08 10:29S 27°47' E 153°22'0 0.0
2018-Jul-08 09:59S 27°47' E 153°22'0 0.0
2018-Jul-08 09:29S 27°47' E 153°22'0 0.0
2018-Jul-08 08:59S 27°47' E 153°22'0 0.0
2018-Jul-08 08:29S 27°47' E 153°22'0 0.0
2018-Jul-08 07:59S 27°47' E 153°22'0 0.0
2018-Jul-08 07:29S 27°47' E 153°22'0 0.0
2018-Jul-08 06:59S 27°47' E 153°22'0 0.0
2018-Jul-08 06:29S 27°47' E 153°22'0 0.0
2018-Jul-08 05:59S 27°47' E 153°22'0 0.0
2018-Jul-08 05:29S 27°47' E 153°22'0 0.0
2018-Jul-08 04:59S 27°47' E 153°22'0 0.0
2018-Jul-08 04:29S 27°47' E 153°22'0 0.0
2018-Jul-08 03:59S 27°47' E 153°22'0 0.0
2018-Jul-08 03:29S 27°47' E 153°22'0 0.0
2018-Jul-08 02:59S 27°47' E 153°22'0 0.0
2018-Jul-08 02:29S 27°47' E 153°22'0 0.0
2018-Jul-08 01:59S 27°47' E 153°22'0 0.0
2018-Jul-08 01:29S 27°47' E 153°22'0 0.0
2018-Jul-08 00:59S 27°47' E 153°22'2 3.1
2018-Jul-08 00:30S 27°45' E 153°21'2 4.7
2018-Jul-08 00:00S 27°43' E 153°21'2 4.5
2018-Jul-07 23:30S 27°41' E 153°22'2 4.6
2018-Jul-07 23:00S 27°39' E 153°21'2 4.2
2018-Jul-07 22:30S 27°37' E 153°19'2 3.9
2018-Jul-07 22:00S 27°35' E 153°20'2 3.5
2018-Jul-07 21:27S 27°35' E 153°22'0 1.0
2018-Jul-07 21:00S 27°36' E 153°22'0 0.0
2018-Jul-07 20:30S 27°36' E 153°22'0 0.0
2018-Jul-07 19:57S 27°36' E 153°22'0 0.0
2018-Jul-07 19:30S 27°36' E 153°22'0 0.0
2018-Jul-07 19:00S 27°36' E 153°22'0 0.0
2018-Jul-07 18:30S 27°36' E 153°22'0 0.0
2018-Jul-07 17:57S 27°36' E 153°22'0 0.0
2018-Jul-07 17:27S 27°36' E 153°22'0 0.0
2018-Jul-07 16:57S 27°36' E 153°22'0 0.0
2018-Jul-07 16:24S 27°36' E 153°22'0 0.0
2018-Jul-07 16:00S 27°36' E 153°22'0 0.0
2018-Jul-07 15:30S 27°36' E 153°22'0 0.0
2018-Jul-07 15:00S 27°36' E 153°22'0 0.0
2018-Jul-07 14:30S 27°36' E 153°22'0 0.0
2018-Jul-07 14:00S 27°36' E 153°22'0 0.0
2018-Jul-07 13:27S 27°36' E 153°22'0 0.0
2018-Jul-07 12:57S 27°36' E 153°22'0 0.0
2018-Jul-07 12:24S 27°36' E 153°22'0 0.0
2018-Jul-07 12:00S 27°36' E 153°22'0 0.0
2018-Jul-07 11:30S 27°36' E 153°22'0 0.0
2018-Jul-07 11:00S 27°36' E 153°22'0 0.0
2018-Jul-07 10:30S 27°36' E 153°22'0 0.0
2018-Jul-07 10:00S 27°36' E 153°22'0 0.0
2018-Jul-07 09:27S 27°36' E 153°22'0 0.0
2018-Jul-07 08:54S 27°36' E 153°22'0 0.0
2018-Jul-07 08:30S 27°36' E 153°22'0 0.0
2018-Jul-07 08:00S 27°36' E 153°22'0 0.0
2018-Jul-07 07:18S 27°36' E 153°22'0 0.0
2018-Jul-07 07:00S 27°36' E 153°22'0 0.0
2018-Jul-07 06:30S 27°36' E 153°22'0 0.0
2018-Jul-07 05:54S 27°36' E 153°22'0 0.0
2018-Jul-07 05:18S 27°36' E 153°22'0 0.0
2018-Jul-07 05:00S 27°36' E 153°22'0 0.0
2018-Jul-07 04:30S 27°36' E 153°22'0 0.0
2018-Jul-07 04:00S 27°36' E 153°22'1 2.3
2018-Jul-07 03:29S 27°35' E 153°21'1 1.8
2018-Jul-07 02:58S 27°34' E 153°21'16 6.0
2018-Jul-07 00:22S 27°20' E 153°13'2 5.6
2018-Jul-06 23:59S 27°18' E 153°12'3 5.7
2018-Jul-06 23:30S 27°15' E 153°12'3 5.7
2018-Jul-06 23:00S 27°13' E 153°10'3 5.7
2018-Jul-06 22:30S 27°10' E 153°09'3 5.2
2018-Jul-06 22:00S 27°08' E 153°08'2 4.2
2018-Jul-06 21:30S 27°06' E 153°10'2 3.7
2018-Jul-06 20:59S 27°04' E 153°09'0 0.0
2018-Jul-06 20:29S 27°04' E 153°09'0 0.0
2018-Jul-06 19:59S 27°04' E 153°09'0 0.0
2018-Jul-06 19:29S 27°04' E 153°09'0 0.0
2018-Jul-06 18:59S 27°04' E 153°09'0 0.0
2018-Jul-06 18:29S 27°04' E 153°09'0 0.0
2018-Jul-06 17:59S 27°04' E 153°09'0 0.0
2018-Jul-06 17:29S 27°04' E 153°09'0 0.1
2018-Jul-06 16:59S 27°04' E 153°09'0 0.0
2018-Jul-06 16:29S 27°04' E 153°09'0 0.0
2018-Jul-06 15:59S 27°04' E 153°09'0 0.0
2018-Jul-06 15:29S 27°04' E 153°09'0 0.0
2018-Jul-06 14:59S 27°04' E 153°09'0 0.0
2018-Jul-06 14:29S 27°04' E 153°09'0 0.0
2018-Jul-06 13:59S 27°04' E 153°09'0 0.0
2018-Jul-06 13:29S 27°04' E 153°09'0 0.0
2018-Jul-06 12:59S 27°04' E 153°09'0 0.0
2018-Jul-06 12:29S 27°04' E 153°09'0 0.0
2018-Jul-06 11:59S 27°04' E 153°09'0 0.0
2018-Jul-06 11:29S 27°04' E 153°09'0 0.0
2018-Jul-06 10:59S 27°04' E 153°09'0 0.0
2018-Jul-06 10:29S 27°04' E 153°09'0 0.0
2018-Jul-06 09:59S 27°04' E 153°09'0 0.0
2018-Jul-06 09:29S 27°04' E 153°09'0 0.0
2018-Jul-06 08:59S 27°04' E 153°09'0 0.0
2018-Jul-06 08:29S 27°04' E 153°09'0 0.0
2018-Jul-06 07:59S 27°04' E 153°09'0 0.0
2018-Jul-06 07:29S 27°04' E 153°09'0 0.0
2018-Jul-06 06:56S 27°04' E 153°09'0 0.0
2018-Jul-06 06:29S 27°04' E 153°09'0 0.0
2018-Jul-06 05:59S 27°04' E 153°09'0 0.0
2018-Jul-06 05:29S 27°04' E 153°09'0 0.0
2018-Jul-06 04:56S 27°04' E 153°09'0 0.0
2018-Jul-06 04:26S 27°04' E 153°09'0 0.0
2018-Jul-06 03:59S 27°04' E 153°09'0 0.0
2018-Jul-06 03:26S 27°04' E 153°09'0 0.0
2018-Jul-06 02:56S 27°04' E 153°09'0 0.0
2018-Jul-06 02:29S 27°04' E 153°09'0 0.0
2018-Jul-06 01:59S 27°04' E 153°09'0 0.0
2018-Jul-06 01:29S 27°04' E 153°09'0 0.0
2018-Jul-06 00:59S 27°04' E 153°09'0 0.0
2018-Jul-06 00:29S 27°04' E 153°09'0 0.0
2018-Jul-05 23:56S 27°04' E 153°09'0 0.1
2018-Jul-05 23:26S 27°04' E 153°09'0 0.1
2018-Jul-05 22:50S 27°04' E 153°09'0 0.0
2018-Jul-05 22:29S 27°04' E 153°09'0 0.0
2018-Jul-05 21:59S 27°04' E 153°09'0 0.0
2018-Jul-05 21:29S 27°04' E 153°09'0 0.0
2018-Jul-05 20:56S 27°04' E 153°09'0 0.0
2018-Jul-05 20:29S 27°04' E 153°09'0 0.0
2018-Jul-05 19:59S 27°04' E 153°09'0 0.1
2018-Jul-05 19:29S 27°04' E 153°09'0 0.1
2018-Jul-05 18:59S 27°04' E 153°09'0 0.0
2018-Jul-05 18:29S 27°04' E 153°09'0 0.0
2018-Jul-05 17:59S 27°04' E 153°09'0 0.0
2018-Jul-05 17:29S 27°04' E 153°09'0 0.0
2018-Jul-05 16:59S 27°04' E 153°09'0 0.0
2018-Jul-05 16:29S 27°04' E 153°09'0 0.0
2018-Jul-05 15:59S 27°04' E 153°09'0 0.0
2018-Jul-05 15:29S 27°04' E 153°09'0 0.0
2018-Jul-05 14:59S 27°04' E 153°09'0 0.0
2018-Jul-05 13:59S 27°04' E 153°09'0 0.0
2018-Jul-05 13:29S 27°04' E 153°09'0 0.0
2018-Jul-05 12:59S 27°04' E 153°09'0 0.0
2018-Jul-05 12:29S 27°04' E 153°09'0 0.0
2018-Jul-05 11:59S 27°04' E 153°09'0 0.0
2018-Jul-05 11:29S 27°04' E 153°09'0 0.0
2018-Jul-05 10:59S 27°04' E 153°09'0 0.0
2018-Jul-05 10:26S 27°04' E 153°09'0 0.1
2018-Jul-05 09:59S 27°04' E 153°09'0 0.0
2018-Jul-05 09:29S 27°04' E 153°09'0 0.0
2018-Jul-05 08:59S 27°04' E 153°09'0 0.0
2018-Jul-05 08:29S 27°04' E 153°09'0 0.0
2018-Jul-05 07:59S 27°04' E 153°09'0 0.0
2018-Jul-05 07:26S 27°04' E 153°09'0 0.0
2018-Jul-05 06:56S 27°04' E 153°09'0 0.0
2018-Jul-05 06:29S 27°04' E 153°09'0 0.0
2018-Jul-05 05:59S 27°04' E 153°09'0 0.0
2018-Jul-05 05:26S 27°04' E 153°09'0 0.0
2018-Jul-05 04:56S 27°04' E 153°09'0 0.0
2018-Jul-05 04:29S 27°04' E 153°09'0 0.0
2018-Jul-05 03:59S 27°04' E 153°09'0 0.0
2018-Jul-05 03:29S 27°04' E 153°09'0 0.0
2018-Jul-05 02:59S 27°04' E 153°09'0 0.0
2018-Jul-05 02:29S 27°04' E 153°09'0 0.0
2018-Jul-05 01:59S 27°04' E 153°09'0 0.0
2018-Jul-05 01:29S 27°04' E 153°09'0 0.0
2018-Jul-05 00:59S 27°04' E 153°09'0 0.0
2018-Jul-05 00:29S 27°04' E 153°09'0 0.0
2018-Jul-04 23:56S 27°04' E 153°09'0 0.0
2018-Jul-04 23:29S 27°04' E 153°09'0 0.0
2018-Jul-04 22:59S 27°04' E 153°09'0 0.1
2018-Jul-04 22:26S 27°04' E 153°09'0 0.0
2018-Jul-04 21:59S 27°04' E 153°09'0 0.1
2018-Jul-04 21:29S 27°04' E 153°09'0 0.0
2018-Jul-04 20:59S 27°04' E 153°09'0 0.1
2018-Jul-04 20:29S 27°04' E 153°09'0 0.0
2018-Jul-04 19:59S 27°04' E 153°09'0 0.0
2018-Jul-04 19:29S 27°04' E 153°09'0 0.0
2018-Jul-04 18:59S 27°04' E 153°09'0 0.0
2018-Jul-04 18:29S 27°04' E 153°09'0 0.1
2018-Jul-04 17:59S 27°04' E 153°09'0 0.0
2018-Jul-04 17:29S 27°04' E 153°09'0 0.0
2018-Jul-04 16:59S 27°04' E 153°09'0 0.0
2018-Jul-04 16:29S 27°04' E 153°09'0 0.0
2018-Jul-04 15:59S 27°04' E 153°09'0 0.0
2018-Jul-04 15:29S 27°04' E 153°09'0 0.0
2018-Jul-04 14:56S 27°04' E 153°09'0 0.0
2018-Jul-04 14:29S 27°04' E 153°09'0 0.0
2018-Jul-04 13:59S 27°04' E 153°09'0 0.0
2018-Jul-04 13:29S 27°04' E 153°09'0 0.0
2018-Jul-04 12:59S 27°04' E 153°09'0 0.0
2018-Jul-04 12:29S 27°04' E 153°09'0 0.0
2018-Jul-04 11:59S 27°04' E 153°09'0 0.0
2018-Jul-04 11:29S 27°04' E 153°09'0 0.0
2018-Jul-04 10:59S 27°04' E 153°09'0 0.0
2018-Jul-04 10:29S 27°04' E 153°09'0 0.0
2018-Jul-04 09:59S 27°04' E 153°09'0 0.0
2018-Jul-04 09:29S 27°04' E 153°09'0 0.0
2018-Jul-04 08:59S 27°04' E 153°09'0 0.0
2018-Jul-04 08:29S 27°04' E 153°09'0 0.0
2018-Jul-04 07:59S 27°04' E 153°09'0 0.0
2018-Jul-04 07:29S 27°04' E 153°09'0 0.0
2018-Jul-04 06:59S 27°04' E 153°09'0 0.0
2018-Jul-04 06:29S 27°04' E 153°09'0 0.0
2018-Jul-04 05:59S 27°04' E 153°09'0 0.0
2018-Jul-04 05:23S 27°04' E 153°09'0 0.1
2018-Jul-04 04:59S 27°04' E 153°09'0 0.0
2018-Jul-04 04:29S 27°04' E 153°09'0 0.0
2018-Jul-04 03:59S 27°04' E 153°09'0 0.0
2018-Jul-04 03:29S 27°04' E 153°09'0 0.0
2018-Jul-04 02:59S 27°04' E 153°09'0 0.0
2018-Jul-04 02:29S 27°04' E 153°09'0 0.0
2018-Jul-04 01:59S 27°04' E 153°09'0 0.0
2018-Jul-04 01:29S 27°04' E 153°09'0 0.0
2018-Jul-04 00:59S 27°04' E 153°09'0 0.0
2018-Jul-04 00:29S 27°04' E 153°09'0 0.0
2018-Jul-03 23:59S 27°04' E 153°09'0 0.0
2018-Jul-03 23:26S 27°04' E 153°09'0 0.0
2018-Jul-03 22:59S 27°04' E 153°09'0 0.0
2018-Jul-03 22:26S 27°04' E 153°09'0 0.0
2018-Jul-03 21:59S 27°04' E 153°09'0 0.1
2018-Jul-03 21:29S 27°04' E 153°09'0 0.0
2018-Jul-03 20:59S 27°04' E 153°09'0 0.0
2018-Jul-03 20:29S 27°04' E 153°09'0 0.0
2018-Jul-03 19:59S 27°04' E 153°09'0 0.0
2018-Jul-03 19:29S 27°04' E 153°09'0 0.0
2018-Jul-03 18:59S 27°04' E 153°09'0 0.0
2018-Jul-03 18:29S 27°04' E 153°09'0 0.0
2018-Jul-03 17:56S 27°04' E 153°09'0 0.0
2018-Jul-03 17:29S 27°04' E 153°09'0 0.0
2018-Jul-03 16:59S 27°04' E 153°09'0 0.0
2018-Jul-03 16:26S 27°04' E 153°09'0 0.1
2018-Jul-03 15:56S 27°04' E 153°09'0 0.0
2018-Jul-03 15:29S 27°04' E 153°09'0 0.0
2018-Jul-03 14:59S 27°04' E 153°09'0 0.0
2018-Jul-03 14:29S 27°04' E 153°09'0 0.0
2018-Jul-03 13:59S 27°04' E 153°09'0 0.0
2018-Jul-03 13:29S 27°04' E 153°09'0 0.0
2018-Jul-03 12:59S 27°04' E 153°09'0 0.0
2018-Jul-03 12:29S 27°04' E 153°09'0 0.0
2018-Jul-03 11:59S 27°04' E 153°09'0 0.0
2018-Jul-03 11:29S 27°04' E 153°09'0 0.0
2018-Jul-03 10:59S 27°04' E 153°09'0 0.0
2018-Jul-03 10:29S 27°04' E 153°09'0 0.0
2018-Jul-03 09:59S 27°04' E 153°09'0 0.0
2018-Jul-03 09:29S 27°04' E 153°09'0 0.0
2018-Jul-03 08:59S 27°04' E 153°09'0 0.0
2018-Jul-03 08:29S 27°04' E 153°09'0 0.0
2018-Jul-03 07:59S 27°04' E 153°09'0 0.0
2018-Jul-03 07:29S 27°04' E 153°09'0 0.0
2018-Jul-03 06:59S 27°04' E 153°09'0 0.0
2018-Jul-03 06:29S 27°04' E 153°09'0 0.0
2018-Jul-03 05:59S 27°04' E 153°09'0 0.0
2018-Jul-03 05:26S 27°04' E 153°09'0 0.0
2018-Jul-03 04:59S 27°04' E 153°09'0 0.0
2018-Jul-03 04:29S 27°04' E 153°09'0 0.0
2018-Jul-03 03:59S 27°04' E 153°09'0 0.0
2018-Jul-03 03:29S 27°04' E 153°09'0 0.0
2018-Jul-03 02:59S 27°04' E 153°09'0 0.0
2018-Jul-03 02:29S 27°04' E 153°09'0 0.0
2018-Jul-03 01:59S 27°04' E 153°09'0 0.0
2018-Jul-03 01:29S 27°04' E 153°09'0 0.0
2018-Jul-03 00:59S 27°04' E 153°09'0 0.0
2018-Jul-03 00:29S 27°04' E 153°09'0 0.0
2018-Jul-02 23:59S 27°04' E 153°09'0 0.0
2018-Jul-02 23:29S 27°04' E 153°09'0 0.0
2018-Jul-02 22:59S 27°04' E 153°09'0 0.0
2018-Jul-02 22:29S 27°04' E 153°09'0 0.0
2018-Jul-02 21:59S 27°04' E 153°09'0 0.0
2018-Jul-02 21:29S 27°04' E 153°09'0 0.0
2018-Jul-02 20:59S 27°04' E 153°09'0 0.1
2018-Jul-02 20:29S 27°04' E 153°09'0 0.0
2018-Jul-02 19:59S 27°04' E 153°09'0 0.0
2018-Jul-02 19:29S 27°04' E 153°09'0 0.0
2018-Jul-02 18:59S 27°04' E 153°09'0 0.0
2018-Jul-02 18:29S 27°04' E 153°09'0 0.0
2018-Jul-02 17:59S 27°04' E 153°09'0 0.0
2018-Jul-02 17:29S 27°04' E 153°09'0 0.0
2018-Jul-02 16:59S 27°04' E 153°09'0 0.0
2018-Jul-02 16:29S 27°04' E 153°09'0 0.0
2018-Jul-02 15:59S 27°04' E 153°09'0 0.0
2018-Jul-02 15:29S 27°04' E 153°09'0 0.1
2018-Jul-02 14:59S 27°04' E 153°09'0 0.0
2018-Jul-02 14:29S 27°04' E 153°09'0 0.0
2018-Jul-02 13:59S 27°04' E 153°09'0 0.1
2018-Jul-02 13:29S 27°04' E 153°09'0 0.1
2018-Jul-02 12:56S 27°04' E 153°09'0 0.0
2018-Jul-02 12:29S 27°04' E 153°09'0 0.0
2018-Jul-02 11:59S 27°04' E 153°09'0 0.0
2018-Jul-02 11:29S 27°04' E 153°09'0 0.0
2018-Jul-02 10:59S 27°04' E 153°09'0 0.0
2018-Jul-02 10:26S 27°04' E 153°09'0 0.0
2018-Jul-02 09:59S 27°04' E 153°09'0 0.0
2018-Jul-02 09:29S 27°04' E 153°09'0 0.0
2018-Jul-02 08:59S 27°04' E 153°09'0 0.0
2018-Jul-02 08:29S 27°04' E 153°09'0 0.1
2018-Jul-02 07:59S 27°04' E 153°09'0 0.0
2018-Jul-02 07:29S 27°04' E 153°09'0 0.0
2018-Jul-02 06:59S 27°04' E 153°09'0 0.0
2018-Jul-02 06:29S 27°04' E 153°09'0 0.0
2018-Jul-02 05:59S 27°04' E 153°09'0 0.1
2018-Jul-02 05:29S 27°04' E 153°09'0 0.1
2018-Jul-02 04:59S 27°04' E 153°09'0 0.0
2018-Jul-02 04:29S 27°04' E 153°09'0 0.1
2018-Jul-02 03:44S 27°04' E 153°09'0 0.0
2018-Jul-02 03:20S 27°04' E 153°09'0 0.0
2018-Jul-02 02:50S 27°04' E 153°09'0 0.0
2018-Jul-02 02:29S 27°04' E 153°09'0 0.0
2018-Jul-02 01:59S 27°04' E 153°09'0 0.0
2018-Jul-02 01:29S 27°04' E 153°09'0 0.0
2018-Jul-02 00:59S 27°04' E 153°09'0 0.0
2018-Jul-02 00:29S 27°04' E 153°09'0 0.0
2018-Jul-01 23:59S 27°04' E 153°09'0 0.0
2018-Jul-01 23:29S 27°04' E 153°09'0 0.0
2018-Jul-01 22:59S 27°04' E 153°09'0 0.0
2018-Jul-01 22:29S 27°04' E 153°09'0 0.0
2018-Jul-01 21:53S 27°04' E 153°09'0 0.0
2018-Jul-01 19:32S 27°04' E 153°09'0 0.0
2018-Jul-01 19:29S 27°04' E 153°09'0 0.0
2018-Jul-01 18:08S 27°04' E 153°09'0 0.0
2018-Jul-01 17:59S 27°04' E 153°09'0 0.0
2018-Jun-30 21:59S 27°04' E 153°09'0 0.0
2018-Jun-30 18:55S 27°04' E 153°09'0 0.0
2018-Jun-30 17:16S 27°04' E 153°09'0 0.0
2018-Jun-30 16:58S 27°04' E 153°09'0 0.0
2018-Jun-30 16:28S 27°04' E 153°09'0 0.0
2018-Jun-30 14:58S 27°04' E 153°09'0 0.0
2018-Jun-30 14:28S 27°04' E 153°09'0 0.0
2018-Jun-30 13:58S 27°04' E 153°09'0 0.1
2018-Jun-30 13:27S 27°04' E 153°09'0 0.0
2018-Jun-30 13:00S 27°04' E 153°09'0 0.0
2018-Jun-30 12:30S 27°04' E 153°09'0 0.0
2018-Jun-30 12:00S 27°04' E 153°09'0 0.0
2018-Jun-30 11:30S 27°04' E 153°09'0 0.0
2018-Jun-30 11:00S 27°04' E 153°09'0 0.0
2018-Jun-30 10:30S 27°04' E 153°09'0 0.0
2018-Jun-30 10:00S 27°04' E 153°09'0 0.0
2018-Jun-30 09:30S 27°04' E 153°09'0 0.0
2018-Jun-30 09:00S 27°04' E 153°09'0 0.0
2018-Jun-30 08:27S 27°04' E 153°09'0 0.0
2018-Jun-30 08:00S 27°04' E 153°09'0 0.0
2018-Jun-30 07:30S 27°04' E 153°09'0 0.0
2018-Jun-30 07:00S 27°04' E 153°09'0 0.1
2018-Jun-30 06:30S 27°04' E 153°09'0 0.0
2018-Jun-30 06:00S 27°04' E 153°09'0 0.0
2018-Jun-30 05:27S 27°04' E 153°09'0 0.0
2018-Jun-30 04:51S 27°04' E 153°09'0 0.0
2018-Jun-30 04:27S 27°04' E 153°09'0 0.0
2018-Jun-30 04:00S 27°04' E 153°09'0 0.0
2018-Jun-30 03:30S 27°04' E 153°09'0 0.0
2018-Jun-30 03:00S 27°04' E 153°09'0 0.0
2018-Jun-30 02:30S 27°04' E 153°09'0 0.1
2018-Jun-30 01:57S 27°04' E 153°09'0 0.1
2018-Jun-30 01:27S 27°04' E 153°09'  

Dump ship's entire track history